Gassim, Saudi Arabia
Current Conditions -  °F | °C
As of 1:00 AM on Thursday 23 Oct 2014 (Local Time) from OEGS Reporting Station
Clear Clear  
Wind Chill: 77°   Ceiling: Unl
Heat Index: 78°   Visibility: 6mi
Dew Point: 54°   Wind: 5mph
Humidity: 44%   Direction: 70°ENE
Pressure: 30.06"   Gusts: NA
Location:  26.3°N, 43.77°E
Report Text: OEGS 222200Z 07004KT CAVOK 25/12 Q1018
Loading
Personal Weather Stations






























Interactive Weather Map
Tropical Storm Tracking
New forecast layout! Learn more

10-Day Weather Forecast

Advertisements
Track Severe Weather on mobile